Time;durP1;ratioP1;P1;durP2;ratioP2;P2;SDS_P1;SDS_P2;PMS_P1;PMS_P2;Temp;Humidity;BMP_temperature;BMP_pressure;BME280_temperature;BME280_humidity;BME280_pressure;Samples;Min_cycle;Max_cycle;Signal;HPM_P1;HPM_P2
2022/01/27 00:01:28;;;;;;;32.53;15.52;;;;;;;11.96;64.39;101909.50;5048764;28;20048;-69
2022/01/27 00:04:22;;;;;;;46.65;18.45;;;;;;;11.99;65.33;101905.38;5051792;28;20045;-69
2022/01/27 00:07:08;;;;;;;32.22;13.13;;;;;;;12.01;65.55;101897.72;5047887;28;20041;-69
2022/01/27 00:12:56;;;;;;;36.95;16.80;;;;;;;12.06;64.33;101899.53;5050426;28;20040;-69
2022/01/27 00:15:42;;;;;;;40.55;19.02;;;;;;;12.05;63.30;101900.66;5047409;28;20512;-69
2022/01/27 00:18:29;;;;;;;33.70;16.65;;;;;;;12.08;63.37;101900.06;5035896;28;20045;-69
2022/01/27 00:21:18;;;;;;;44.30;17.77;;;;;;;12.09;64.55;101894.31;5037554;28;20045;-69
2022/01/27 00:24:03;;;;;;;42.58;18.02;;;;;;;12.08;64.14;101906.34;5028608;28;20433;-69
2022/01/27 00:26:48;;;;;;;28.00;13.30;;;;;;;12.03;64.27;101903.69;5026981;28;20045;-69
2022/01/27 00:29:33;;;;;;;24.13;11.75;;;;;;;12.05;65.21;101903.38;5030583;28;20057;-69
2022/01/27 00:32:18;;;;;;;25.40;12.70;;;;;;;12.07;65.10;101904.72;5047216;28;20497;-69
2022/01/27 00:35:04;;;;;;;28.20;11.75;;;;;;;12.10;65.60;101903.28;5046963;28;20049;-70
2022/01/27 00:37:49;;;;;;;29.92;13.75;;;;;;;12.09;65.55;101896.25;5050683;28;20049;-70
2022/01/27 00:40:34;;;;;;;37.72;16.95;;;;;;;12.11;66.04;101907.66;5047128;28;20049;-70
2022/01/27 00:43:19;;;;;;;;;;;;;;;12.10;65.82;101906.84;5046769;28;20044;-70
2022/01/27 00:46:10;;;;;;;32.10;14.45;;;;;;;12.12;65.84;101903.81;5046903;28;19916;-70
2022/01/27 00:48:55;;;;;;;36.92;16.27;;;;;;;12.06;64.91;101897.63;5048498;28;20524;-70
2022/01/27 00:51:44;;;;;;;49.85;20.42;;;;;;;12.08;63.56;101894.63;5045328;28;20053;-70
2022/01/27 00:54:30;;;;;;;54.72;22.67;;;;;;;12.10;62.93;101903.28;5050364;28;20665;-70
2022/01/27 00:57:31;;;;;;;38.13;17.65;;;;;;;12.08;63.62;101909.06;5048881;28;20045;-70
2022/01/27 01:00:48;;;;;;;52.95;22.27;;;;;;;12.10;64.40;101906.84;5049566;28;20045;-70
2022/01/27 01:03:34;;;;;;;31.67;14.57;;;;;;;12.10;65.22;101908.75;5028546;28;20045;-68
2022/01/27 01:15:16;;;;;;;37.33;15.98;;;;;;;12.16;66.35;101891.22;5028921;28;20381;-69
2022/01/27 01:30:09;;;;;;;47.45;21.13;;;;;;;12.04;63.62;101867.13;5034313;28;20042;-70
2022/01/27 01:32:57;;;;;;;52.88;22.58;;;;;;;12.00;61.75;101877.81;5043935;28;20041;-70
2022/01/27 01:35:49;;;;;;;65.78;29.55;;;;;;;12.03;62.11;101870.16;5050841;28;20045;-69
2022/01/27 01:38:34;;;;;;;61.08;27.05;;;;;;;11.98;58.57;101882.78;5057303;28;20040;-70
2022/01/27 01:41:19;;;;;;;44.97;19.70;;;;;;;12.04;62.09;101888.94;5017195;28;20080;-69
2022/01/27 01:44:04;;;;;;;;;;;;;;;12.02;63.01;101868.53;5024888;28;20049;-69
2022/01/27 01:46:49;;;;;;;23.93;12.87;;;;;;;12.03;61.10;101864.72;5033540;28;19916;-69
2022/01/27 01:49:34;;;;;;;50.00;22.70;;;;;;;11.98;62.81;101862.88;5036752;28;20498;-69
2022/01/27 01:52:20;;;;;;;61.97;27.95;;;;;;;11.95;62.19;101861.53;5036318;28;20041;-69
2022/01/27 01:55:07;;;;;;;54.50;22.77;;;;;;;11.98;60.27;101844.59;5032657;28;20049;-70
2022/01/27 01:57:52;;;;;;;64.45;28.50;;;;;;;11.99;60.94;101845.38;5036421;28;20041;-68
2022/01/27 02:00:37;;;;;;;47.28;22.45;;;;;;;11.97;58.72;101848.44;5036743;28;20057;-69
2022/01/27 02:03:22;;;;;;;31.00;15.10;;;;;;;11.96;59.95;101846.81;5048065;28;20044;-69
2022/01/27 02:06:15;;;;;;;23.42;11.77;;;;;;;12.00;62.37;101841.56;5049665;28;20413;-69
2022/01/27 02:17:58;;;;;;;36.53;17.58;;;;;;;11.94;63.40;101821.75;5023743;28;20690;-68
2022/01/27 02:20:43;;;;;;;70.93;30.10;;;;;;;11.94;62.20;101821.75;5036328;28;20045;-69
2022/01/27 02:23:28;;;;;;;42.83;18.45;;;;;;;11.95;63.52;101820.66;5034894;28;20050;-68
2022/01/27 02:26:13;;;;;;;41.92;17.77;;;;;;;11.93;64.04;101817.44;5032910;28;20049;-68
2022/01/27 02:28:58;;;;;;;25.88;10.13;;;;;;;11.94;65.16;101813.56;5036012;28;20429;-68
2022/01/27 02:31:44;;;;;;;45.95;17.55;;;;;;;11.97;64.96;101813.00;5035170;28;20041;-69
2022/01/27 02:34:29;;;;;;;50.53;19.90;;;;;;;11.92;62.29;101812.25;5033528;28;20049;-68
2022/01/27 02:37:14;;;;;;;31.13;13.18;;;;;;;11.90;63.86;101815.28;5035337;28;20057;-69
2022/01/27 02:39:59;;;;;;;44.15;18.05;;;;;;;11.86;64.04;101800.63;5034331;28;20437;-69
2022/01/27 02:42:44;;;;;;;50.53;18.73;;;;;;;11.79;62.69;101802.91;5035524;28;20417;-69
2022/01/27 02:45:49;;;;;;;;;;;;;;;11.79;62.26;101813.00;5030624;28;20053;-69
2022/01/27 02:48:34;;;;;;;61.15;24.02;;;;;;;11.80;62.12;101801.81;5033778;28;19917;-69
2022/01/27 02:51:19;;;;;;;38.28;15.07;;;;;;;11.69;62.77;101803.03;5035548;28;20049;-69
2022/01/27 02:54:04;;;;;;;;;;;;;;;11.76;64.02;101792.63;5040151;28;20033;-69
2022/01/27 02:56:49;;;;;;;37.95;15.15;;;;;;;11.82;65.47;101794.16;5055097;28;19916;-69
2022/01/27 02:59:34;;;;;;;57.75;18.98;;;;;;;11.73;63.73;101782.31;5055241;28;20070;-69
2022/01/27 03:02:19;;;;;;;;;;;;;;;11.81;64.08;101783.56;5032663;28;20045;-70
2022/01/27 03:05:04;;;;;;;68.53;23.95;;;;;;;11.78;63.26;101784.97;5031253;28;19916;-69
2022/01/27 03:07:49;;;;;;;101.53;34.05;;;;;;;11.80;63.95;101784.66;5034853;28;20413;-70
2022/01/27 03:10:39;;;;;;;40.40;15.25;;;;;;;11.78;62.96;101786.88;5030119;28;20041;-69
2022/01/27 03:13:24;;;;;;;104.32;33.47;;;;;;;11.75;63.44;101791.00;5015130;28;20041;-69
2022/01/27 03:16:09;;;;;;;55.65;20.00;;;;;;;11.73;63.25;101785.06;5014770;28;20050;-69
2022/01/27 03:18:54;;;;;;;77.20;27.63;;;;;;;11.72;62.44;101783.41;5014854;28;20045;-69
2022/01/27 03:21:39;;;;;;;;;;;;;;;11.61;62.23;101787.38;5020103;28;20050;-69
2022/01/27 03:24:25;;;;;;;53.78;21.13;;;;;;;11.67;64.62;101788.09;5052566;28;19921;-68
2022/01/27 03:27:14;;;;;;;58.75;21.83;;;;;;;11.73;65.00;101785.06;5054414;28;20048;-69
2022/01/27 03:29:59;;;;;;;47.30;18.70;;;;;;;11.63;63.41;101787.88;5048406;28;20048;-68
2022/01/27 03:32:44;;;;;;;60.58;21.58;;;;;;;11.64;63.36;101794.94;5014659;28;20049;-69
2022/01/27 03:35:29;;;;;;;74.65;26.45;;;;;;;11.62;62.54;101789.00;5010351;28;20074;-68
2022/01/27 03:38:14;;;;;;;42.97;17.20;;;;;;;11.66;64.95;101792.75;5027893;28;20041;-68
2022/01/27 03:40:59;;;;;;;;;;;;;;;11.70;65.15;101812.84;5034476;28;20054;-68
2022/01/27 03:43:45;;;;;;;97.65;31.35;;;;;;;11.61;60.38;101817.34;5034238;28;19917;-68
2022/01/27 03:46:30;;;;;;;34.65;14.60;;;;;;;11.65;64.63;101818.38;5033970;28;20464;-69
2022/01/27 03:49:15;;;;;;;51.50;18.45;;;;;;;11.66;63.80;101814.53;5031687;28;20045;-68
2022/01/27 03:52:01;;;;;;;59.40;21.95;;;;;;;11.57;63.29;101808.16;5030312;28;20044;-71
2022/01/27 03:54:46;;;;;;;154.82;36.75;;;;;;;11.59;65.41;101797.75;5029587;28;20120;-73
2022/01/27 03:57:31;;;;;;;;;;;;;;;11.63;65.53;101801.50;5034137;28;20045;-67
2022/01/27 04:00:16;;;;;;;225.57;51.30;;;;;;;11.61;64.91;101801.00;5033956;28;19917;-67
2022/01/27 04:03:07;;;;;;;152.32;33.38;;;;;;;11.62;64.67;101794.44;5035193;28;20041;-67
2022/01/27 04:05:54;;;;;;;166.82;40.05;;;;;;;11.65;65.02;101796.56;5027892;28;20045;-67
2022/01/27 04:08:39;;;;;;;171.77;38.83;;;;;;;11.65;64.67;101799.28;5033439;28;20502;-67
2022/01/27 04:11:24;;;;;;;;;;;;;;;11.61;63.59;101798.28;5027841;28;20489;-67
2022/01/27 04:14:10;;;;;;;134.88;36.78;;;;;;;11.59;63.67;101806.72;5029810;28;19921;-68
2022/01/27 04:16:55;;;;;;;112.47;33.92;;;;;;;11.59;62.76;101801.28;5029346;28;20041;-68
2022/01/27 04:19:40;;;;;;;83.03;22.10;;;;;;;11.61;63.77;101797.47;5028067;28;20053;-69
2022/01/27 04:22:25;;;;;;;86.97;31.77;;;;;;;11.55;61.26;101783.91;5032567;28;20516;-69
2022/01/27 04:25:12;;;;;;;;;;;;;;;11.59;63.00;101784.13;5036660;28;20063;-69
2022/01/27 04:28:01;;;;;;;;;;;;;;;11.58;61.89;101787.94;5028567;28;19936;-70
2022/01/27 04:30:46;;;;;;;76.35;24.67;;;;;;;11.57;62.29;101789.06;5031979;28;19917;-68
2022/01/27 04:33:34;;;;;;;88.45;27.52;;;;;;;11.57;62.54;101789.88;5029862;28;20049;-69
2022/01/27 04:36:26;;;;;;;91.22;32.03;;;;;;;11.56;61.63;101787.44;5013013;28;20037;-68
2022/01/27 04:39:27;;;;;;;96.95;34.95;;;;;;;11.54;59.90;101789.66;5031374;28;20757;-68
2022/01/27 04:42:20;;;;;;;92.13;31.10;;;;;;;11.53;59.53;101793.47;5029007;28;20049;-69
2022/01/27 04:45:07;;;;;;;101.40;33.03;;;;;;;11.51;60.26;101782.06;5028188;28;20042;-69
2022/01/27 04:48:01;;;;;;;80.63;29.67;;;;;;;11.51;60.60;101771.19;5030822;28;20049;-68
2022/01/27 04:50:51;;;;;;;81.38;24.73;;;;;;;11.50;61.42;101778.53;5028496;28;20045;-67
2022/01/27 04:53:43;;;;;;;85.50;31.52;;;;;;;11.47;59.09;101783.78;5031773;28;20041;-68
2022/01/27 04:56:30;;;;;;;95.75;33.03;;;;;;;11.45;58.17;101797.69;5031071;28;20498;-69
2022/01/27 04:59:26;;;;;;;63.70;23.67;;;;;;;11.47;60.18;101795.50;5027940;28;20045;-69
2022/01/27 05:05:25;;;;;;;67.80;23.58;;;;;;;11.46;60.51;101806.66;5030150;28;20049;-67
2022/01/27 05:08:16;;;;;;;55.85;20.92;;;;;;;11.46;60.73;101810.19;5032509;28;20045;-67
2022/01/27 05:11:07;;;;;;;73.32;23.40;;;;;;;11.46;61.80;101809.38;5029031;28;20417;-67
2022/01/27 05:13:57;;;;;;;69.50;23.98;;;;;;;11.46;62.07;101807.47;5035909;28;20417;-67
2022/01/27 05:16:42;;;;;;;82.57;27.40;;;;;;;11.45;60.17;101805.03;5031525;28;20041;-66
2022/01/27 05:19:27;;;;;;;54.78;19.90;;;;;;;11.46;61.65;101809.38;5020158;28;20049;-67
2022/01/27 05:22:12;;;;;;;77.03;26.17;;;;;;;11.46;60.90;101803.94;5031491;28;20355;-66
2022/01/27 05:24:57;;;;;;;;;;;;;;;11.44;59.90;101809.69;5033476;28;20075;-67
2022/01/27 05:27:42;;;;;;;78.28;27.88;;;;;;;11.43;58.08;101801.78;5027999;28;19917;-67
2022/01/27 05:30:27;;;;;;;64.50;24.40;;;;;;;11.43;59.83;101812.69;5031215;28;20045;-66
2022/01/27 05:33:11;;;;;;;;;;;;;;;11.36;59.14;101812.25;5035494;28;20046;-67
2022/01/27 05:35:56;;;;;;;70.18;27.70;;;;;;;11.28;57.49;101804.72;5030062;28;20381;-67
2022/01/27 05:38:41;;;;;;;77.28;27.95;;;;;;;11.26;56.84;101806.94;5031623;28;20481;-67
2022/01/27 05:41:26;;;;;;;62.55;21.48;;;;;;;11.20;56.64;101808.94;5027960;28;20473;-67
2022/01/27 05:44:11;;;;;;;56.97;21.25;;;;;;;11.20;57.55;101808.09;5032957;28;20076;-65
2022/01/27 05:46:56;;;;;;;53.28;20.58;;;;;;;11.19;58.64;101807.28;5043421;28;20049;-66
2022/01/27 05:49:41;;;;;;;55.97;22.17;;;;;;;11.14;58.08;101805.44;5050218;28;20045;-67
2022/01/27 05:52:26;;;;;;;;;;;;;;;11.15;58.02;101817.97;5054113;28;20040;-67
2022/01/27 05:55:10;;;;;;;67.90;26.02;;;;;;;11.12;57.20;101825.91;5030508;28;20324;-66
2022/01/27 05:57:56;;;;;;;;;;;;;;;11.07;57.65;101826.75;5025838;28;20045;-66
2022/01/27 06:00:40;;;;;;;73.68;26.67;;;;;;;11.03;56.36;101825.72;5034510;28;19913;-67
2022/01/27 06:03:25;;;;;;;48.95;20.67;;;;;;;11.07;57.16;101834.16;5024571;28;20457;-67
2022/01/27 06:06:10;;;;;;;52.65;18.85;;;;;;;11.07;56.92;101836.88;5031177;28;20041;-67
2022/01/27 06:08:55;;;;;;;;;;;;;;;11.06;58.02;101833.34;5034083;28;20045;-67
2022/01/27 06:11:39;;;;;;;62.75;23.02;;;;;;;10.99;58.53;101841.03;5031155;28;19917;-67
2022/01/27 06:14:24;;;;;;;50.13;17.75;;;;;;;11.08;60.33;101843.91;5020778;28;20042;-67
2022/01/27 06:17:09;;;;;;;;;;;;;;;10.96;59.53;101843.53;5032364;28;20046;-69
2022/01/27 06:19:55;;;;;;;75.70;26.00;;;;;;;10.38;59.82;101846.28;5034593;28;19917;-68
2022/01/27 06:22:40;;;;;;;89.75;30.05;;;;;;;10.09;58.78;101831.84;5027080;28;20513;-67
2022/01/27 06:25:27;;;;;;;72.72;27.30;;;;;;;9.70;61.47;101826.44;5023064;28;20432;-68
2022/01/27 06:28:12;;;;;;;67.85;25.10;;;;;;;10.93;61.32;101825.84;5038274;28;20053;-67
2022/01/27 06:30:57;;;;;;;68.85;23.42;;;;;;;9.97;56.67;101836.81;5041421;28;20203;-68
2022/01/27 06:33:42;;;;;;;69.65;23.15;;;;;;;9.42;57.71;101850.50;5040194;28;20508;-68
2022/01/27 06:36:27;;;;;;;71.22;23.15;;;;;;;8.84;59.44;101853.97;5026756;28;20056;-68
2022/01/27 06:39:12;;;;;;;75.32;22.40;;;;;;;8.94;60.24;101864.78;5028190;28;20072;-68
2022/01/27 06:41:57;;;;;;;63.38;24.77;;;;;;;8.55;60.20;101860.00;5029236;28;20048;-68
2022/01/27 06:44:42;;;;;;;65.85;23.38;;;;;;;8.64;60.50;101875.69;5036991;28;20041;-68
2022/01/27 06:47:27;;;;;;;86.88;30.27;;;;;;;8.24;61.31;101866.50;5035420;28;20064;-68
2022/01/27 06:50:12;;;;;;;71.25;21.70;;;;;;;8.04;62.38;101871.91;5033695;28;20048;-68
2022/01/27 06:52:58;;;;;;;64.78;22.60;;;;;;;7.98;62.51;101886.50;5037841;28;20056;-71
2022/01/27 06:55:43;;;;;;;89.28;31.58;;;;;;;7.91;62.58;101894.09;5034373;28;20067;-70
2022/01/27 06:58:28;;;;;;;61.25;21.92;;;;;;;8.10;61.93;101895.22;5033755;28;20060;-71
2022/01/27 07:01:13;;;;;;;61.50;23.30;;;;;;;7.79;63.08;101888.13;5037557;28;20056;-70
2022/01/27 07:03:58;;;;;;;70.15;23.08;;;;;;;7.62;63.58;101891.84;5035491;28;20060;-70
2022/01/27 07:06:43;;;;;;;85.05;30.00;;;;;;;7.53;64.13;101893.47;5033845;28;20103;-70
2022/01/27 07:09:28;;;;;;;57.05;19.75;;;;;;;7.66;64.81;101892.16;5037557;28;20052;-70
2022/01/27 07:12:13;;;;;;;70.85;24.77;;;;;;;7.62;63.93;101891.84;5035908;28;20052;-70
2022/01/27 07:14:58;;;;;;;59.05;20.90;;;;;;;7.72;64.12;101880.25;5033481;28;20053;-71
2022/01/27 07:17:43;;;;;;;65.80;24.55;;;;;;;7.81;63.51;101885.97;5037665;28;20056;-70
2022/01/27 07:20:28;;;;;;;72.55;24.25;;;;;;;7.81;62.77;101891.38;5036337;28;20049;-70
2022/01/27 07:23:13;;;;;;;60.08;22.50;;;;;;;7.50;63.84;101894.00;5033836;28;20411;-70
2022/01/27 07:25:58;;;;;;;59.53;22.35;;;;;;;7.35;64.50;101898.53;5033066;28;20328;-70
2022/01/27 07:28:43;;;;;;;59.33;22.70;;;;;;;7.31;65.12;101911.78;5035860;28;20517;-70
2022/01/27 07:31:28;;;;;;;60.15;23.33;;;;;;;7.38;65.95;101911.53;5034289;28;20064;-70
2022/01/27 07:34:12;;;;;;;69.78;23.30;;;;;;;7.34;64.94;101913.13;5037592;28;20052;-70
2022/01/27 07:37:00;;;;;;;75.30;27.60;;;;;;;7.43;65.24;101917.78;5036064;28;20052;-70
2022/01/27 07:39:45;;;;;;;90.57;30.05;;;;;;;7.60;64.15;101910.28;5034007;28;20048;-70
2022/01/27 07:42:30;;;;;;;96.43;31.58;;;;;;;7.85;65.05;101906.81;5038060;28;20068;-69
2022/01/27 07:45:16;;;;;;;84.97;30.90;;;;;;;7.57;63.96;101918.91;5034556;28;20520;-70
2022/01/27 07:48:00;;;;;;;64.45;22.58;;;;;;;7.45;64.03;101915.63;5034358;28;20660;-70
2022/01/27 07:50:45;;;;;;;70.35;25.63;;;;;;;7.47;63.95;101920.75;5032414;28;20044;-70
2022/01/27 07:53:30;;;;;;;80.78;24.98;;;;;;;7.51;64.25;101933.53;5036108;28;20402;-70
2022/01/27 07:56:15;;;;;;;61.10;21.33;;;;;;;7.62;65.70;101935.16;5034672;28;20049;-70
2022/01/27 07:59:00;;;;;;;78.78;28.38;;;;;;;7.62;63.85;101946.00;5038008;28;20052;-70
2022/01/27 08:01:45;;;;;;;70.57;24.58;;;;;;;7.56;63.59;101941.66;5036020;28;20048;-70
2022/01/27 08:04:30;;;;;;;58.78;20.92;;;;;;;7.37;63.72;101945.88;5034135;28;20060;-70
2022/01/27 08:07:15;;;;;;;64.70;23.63;;;;;;;7.32;64.04;101946.69;5032415;28;20504;-70
2022/01/27 08:10:00;;;;;;;64.45;23.58;;;;;;;7.20;64.72;101945.28;5036196;28;20060;-70
2022/01/27 08:12:45;;;;;;;72.43;25.33;;;;;;;7.41;65.11;101951.59;5034407;28;20516;-70
2022/01/27 08:15:31;;;;;;;68.50;24.42;;;;;;;7.50;64.30;101948.13;5032688;28;20045;-70
2022/01/27 08:18:16;;;;;;;85.72;28.42;;;;;;;7.52;64.41;101951.38;5036745;28;20048;-70
2022/01/27 08:21:00;;;;;;;63.15;24.98;;;;;;;7.36;64.34;101948.88;5034566;28;20052;-70
2022/01/27 08:23:45;;;;;;;67.40;23.17;;;;;;;7.44;63.98;101953.78;5032496;28;20397;-70
2022/01/27 08:26:42;;;;;;;71.53;22.98;;;;;;;7.38;63.91;101954.81;5036713;28;20401;-70
2022/01/27 08:29:38;;;;;;;78.18;29.23;;;;;;;7.44;64.04;101956.47;5034477;28;20512;-70
2022/01/27 08:32:33;;;;;;;89.25;31.02;;;;;;;7.31;64.26;101958.56;5037493;28;20068;-70
2022/01/27 08:35:20;;;;;;;91.57;32.15;;;;;;;7.17;64.90;101957.41;5033473;28;20109;-69
2022/01/27 08:38:05;;;;;;;75.35;28.90;;;;;;;7.21;65.88;101952.31;5033207;28;20060;-70
2022/01/27 08:40:50;;;;;;;85.40;30.48;;;;;;;7.37;64.92;101954.00;5036973;28;20049;-70
2022/01/27 08:43:36;;;;;;;65.95;23.23;;;;;;;7.37;65.06;101959.41;5034929;28;20523;-70
2022/01/27 08:46:20;;;;;;;60.45;21.80;;;;;;;7.57;64.20;101948.69;5033405;28;20525;-70
2022/01/27 08:49:06;;;;;;;54.95;22.40;;;;;;;7.66;64.74;101940.88;5037444;28;20525;-69
2022/01/27 08:51:52;;;;;;;84.85;28.27;;;;;;;7.75;64.50;101944.69;5035516;28;20056;-70
2022/01/27 08:54:37;;;;;;;89.32;28.45;;;;;;;7.69;64.52;101954.69;5033282;28;20041;-70
2022/01/27 08:57:22;;;;;;;62.60;23.00;;;;;;;7.53;63.56;101946.78;5031473;28;20611;-70
2022/01/27 09:00:09;;;;;;;64.18;24.95;;;;;;;7.25;64.49;101942.59;5035975;28;20512;-70
2022/01/27 09:02:54;;;;;;;90.80;31.25;;;;;;;7.32;64.01;101935.03;5033509;28;20049;-70
2022/01/27 09:05:40;;;;;;;66.13;23.52;;;;;;;7.25;64.57;101935.31;5031458;28;20048;-70
2022/01/27 09:08:27;;;;;;;78.40;28.63;;;;;;;8.39;64.17;101939.69;5019280;28;20049;-70
2022/01/27 09:11:12;;;;;;;96.30;31.88;;;;;;;7.94;62.36;101945.84;5028357;28;20053;-71
2022/01/27 09:13:58;;;;;;;39.00;16.75;;;;;;;8.33;66.88;101940.75;5027840;28;20508;-70
2022/01/27 09:16:43;;;;;;;80.05;29.38;;;;;;;8.08;62.02;101946.13;5029002;28;20053;-70
2022/01/27 09:19:28;;;;;;;66.07;25.73;;;;;;;7.73;62.55;101941.44;5025610;28;20339;-70
2022/01/27 09:22:15;;;;;;;51.58;19.40;;;;;;;8.70;67.40;101934.25;5026868;28;20056;-70
2022/01/27 09:25:08;;;;;;;66.82;23.55;;;;;;;10.03;63.16;101928.91;5033684;28;20053;-70
2022/01/27 09:27:53;;;;;;;111.70;29.70;;;;;;;10.40;57.47;101941.19;5033217;28;20041;-70
2022/01/27 09:30:39;;;;;;;111.82;30.05;;;;;;;9.39;59.84;101932.50;5031224;28;20041;-68
2022/01/27 09:33:24;;;;;;;280.58;39.75;;;;;;;10.13;57.01;101939.72;5035307;28;20049;-68
2022/01/27 09:36:12;;;;;;;104.70;37.78;;;;;;;9.44;56.77;101946.06;5033058;28;20045;-68
2022/01/27 09:38:57;;;;;;;90.57;35.63;;;;;;;8.58;58.51;101940.78;5029307;28;20049;-67
2022/01/27 09:41:43;;;;;;;77.97;27.88;;;;;;;8.29;59.68;101942.38;5030415;28;20044;-68
2022/01/27 09:44:31;;;;;;;102.35;36.63;;;;;;;8.09;60.09;101936.91;5029930;28;20044;-67
2022/01/27 09:47:16;;;;;;;105.85;39.03;;;;;;;7.88;60.87;101941.47;5031056;28;20490;-68
2022/01/27 09:50:19;;;;;;;99.40;38.97;;;;;;;7.67;61.86;101942.50;5038491;28;20045;-68
2022/01/27 09:53:04;;;;;;;87.35;26.73;;;;;;;8.47;64.98;101944.59;5036296;28;20067;-67
2022/01/27 09:55:48;;;;;;;57.92;18.58;;;;;;;9.87;63.53;101949.09;5030245;28;20053;-66
2022/01/27 09:58:33;;;;;;;67.47;17.60;;;;;;;10.46;60.61;101949.03;5033997;28;20048;-67
2022/01/27 10:01:18;;;;;;;87.03;23.58;;;;;;;10.15;58.10;101948.41;5033477;28;20041;-67
2022/01/27 10:04:06;;;;;;;75.32;25.50;;;;;;;9.55;56.60;101946.81;5031756;28;20037;-70
2022/01/27 10:06:57;;;;;;;81.80;31.55;;;;;;;8.53;58.11;101950.84;5040871;28;20505;-70
2022/01/27 10:10:15;;;;;;;80.68;30.88;;;;;;;7.35;61.21;101952.66;5040976;28;20060;-71
2022/01/27 10:13:03;;;;;;;90.70;32.55;;;;;;;7.79;60.59;101963.94;5027805;28;20052;-71
2022/01/27 10:15:48;;;;;;;74.43;30.38;;;;;;;8.53;59.31;101951.63;5034162;28;20401;-70
2022/01/27 10:18:40;;;;;;;70.43;25.65;;;;;;;8.31;58.74;101952.97;5040703;28;20064;-70
2022/01/27 10:21:31;;;;;;;97.60;35.17;;;;;;;8.00;59.68;101946.66;5040733;28;20040;-70
2022/01/27 10:24:27;;;;;;;103.18;32.33;;;;;;;8.03;60.75;101940.69;5038959;28;20417;-70
2022/01/27 10:27:20;;;;;;;76.00;28.45;;;;;;;8.11;60.52;101937.47;5039238;28;20037;-70
2022/01/27 10:33:51;;;;;;;93.18;34.00;;;;;;;8.45;59.20;101933.19;5051288;28;20052;-70
2022/01/27 10:36:40;;;;;;;94.88;35.00;;;;;;;7.79;61.88;101923.31;5040400;28;20052;-71
2022/01/27 10:39:25;;;;;;;95.88;35.13;;;;;;;7.26;63.26;101917.19;5033763;28;20516;-70
2022/01/27 10:42:10;;;;;;;85.50;27.90;;;;;;;7.73;61.76;101912.47;5040242;28;20048;-71
2022/01/27 10:44:56;;;;;;;78.03;27.05;;;;;;;8.43;60.34;101916.38;5036621;28;20048;-70
2022/01/27 10:47:44;;;;;;;86.63;32.97;;;;;;;8.89;58.59;101910.91;5040110;28;20052;-70
2022/01/27 10:50:31;;;;;;;98.05;35.95;;;;;;;8.61;59.94;101896.06;5028315;28;20041;-70
2022/01/27 10:53:17;;;;;;;99.63;34.70;;;;;;;9.24;58.18;101896.47;5040026;28;20798;-70
2022/01/27 10:56:05;;;;;;;102.45;33.97;;;;;;;9.35;57.45;101904.25;5033878;28;20056;-71
2022/01/27 10:58:50;;;;;;;95.15;32.65;;;;;;;9.68;56.11;101900.03;5039592;28;20049;-71
2022/01/27 11:01:39;;;;;;;83.47;29.70;;;;;;;9.23;56.44;101901.06;5040000;28;20064;-71
2022/01/27 11:04:33;;;;;;;106.13;36.42;;;;;;;10.08;54.40;101900.88;5029839;28;20413;-69
2022/01/27 11:07:24;;;;;;;101.00;36.40;;;;;;;10.45;53.64;101889.47;5036547;28;20029;-69
2022/01/27 11:10:09;;;;;;;84.25;31.63;;;;;;;9.44;55.30;101880.91;5034625;28;20045;-68
2022/01/27 11:12:56;;;;;;;70.60;26.33;;;;;;;8.73;58.46;101876.78;5035827;28;20049;-68
2022/01/27 11:15:42;;;;;;;90.70;32.90;;;;;;;8.40;59.77;101870.84;5028437;28;20131;-69
2022/01/27 11:18:28;;;;;;;95.32;34.58;;;;;;;8.06;60.79;101870.56;5023956;28;20405;-69
2022/01/27 11:21:38;;;;;;;93.07;31.73;;;;;;;8.18;60.84;101870.28;5033730;28;20052;-68
2022/01/27 11:24:31;;;;;;;82.90;32.88;;;;;;;7.85;61.87;101860.78;5031869;28;20048;-69
2022/01/27 11:27:20;;;;;;;91.57;34.65;;;;;;;7.56;62.91;101859.66;5033113;28;20071;-68
2022/01/27 11:30:13;;;;;;;90.55;33.33;;;;;;;7.61;63.03;101851.53;5036397;28;20068;-68
2022/01/27 11:33:08;;;;;;;91.82;31.95;;;;;;;7.48;63.23;101854.75;5031378;28;20045;-69
2022/01/27 11:36:06;;;;;;;93.32;35.63;;;;;;;7.39;63.64;101851.75;5029444;28;20123;-69
2022/01/27 11:38:51;;;;;;;82.38;30.77;;;;;;;7.63;62.79;101852.06;5028670;28;20413;-69
2022/01/27 11:41:37;;;;;;;73.97;27.33;;;;;;;7.50;63.75;101849.88;5029885;28;20045;-69
2022/01/27 11:44:29;;;;;;;94.03;33.10;;;;;;;7.74;62.86;101842.91;5031250;28;20053;-69
2022/01/27 11:47:18;;;;;;;98.43;34.03;;;;;;;7.97;61.69;101853.22;5033307;28;20524;-69
2022/01/27 11:50:12;;;;;;;97.22;34.88;;;;;;;8.18;60.70;101845.09;5032927;28;20060;-70
2022/01/27 11:52:57;;;;;;;94.10;32.53;;;;;;;7.74;62.63;101838.28;5036192;28;20043;-70
2022/01/27 11:55:44;;;;;;;70.38;24.85;;;;;;;8.30;60.88;101830.22;5033356;28;20052;-68
2022/01/27 11:58:29;;;;;;;91.43;33.03;;;;;;;8.66;59.33;101841.00;5032495;28;20041;-68
2022/01/27 12:01:36;;;;;;;63.60;24.40;;;;;;;8.69;58.96;101830.41;5036753;28;20056;-69
2022/01/27 12:04:26;;;;;;;93.25;32.63;;;;;;;9.02;58.23;101818.94;5033064;28;20417;-68
2022/01/27 12:07:11;;;;;;;84.95;32.78;;;;;;;9.08;57.71;101817.00;5036415;28;20052;-69
2022/01/27 12:09:59;;;;;;;69.20;25.40;;;;;;;9.32;56.75;101812.53;5031576;28;20049;-69
2022/01/27 12:12:43;;;;;;;89.80;32.25;;;;;;;8.96;58.33;101808.38;5033328;28;20408;-68
2022/01/27 12:15:31;;;;;;;71.55;26.73;;;;;;;9.40;56.69;101803.78;5022789;28;20045;-68
2022/01/27 12:18:36;;;;;;;86.60;33.35;;;;;;;9.82;55.27;101789.66;5038303;28;20048;-68
2022/01/27 12:21:39;;;;;;;61.93;25.13;;;;;;;9.87;55.49;101792.34;5026676;28;20045;-68
2022/01/27 12:24:29;;;;;;;74.72;30.92;;;;;;;10.24;54.96;101791.78;5029668;28;20056;-68
2022/01/27 12:27:18;;;;;;;84.57;33.33;;;;;;;10.63;52.71;101791.66;5038313;28;20041;-68
2022/01/27 12:30:06;;;;;;;83.53;33.47;;;;;;;9.88;55.52;101780.38;5037771;28;20037;-68
2022/01/27 12:32:56;;;;;;;81.50;30.60;;;;;;;9.62;56.17;101783.56;5024607;28;20461;-68
2022/01/27 12:35:40;;;;;;;78.97;31.55;;;;;;;9.52;56.81;101772.78;5021061;28;20049;-68
2022/01/27 12:38:25;;;;;;;62.97;25.02;;;;;;;9.54;56.17;101776.84;5036055;28;20048;-68
2022/01/27 12:41:11;;;;;;;58.72;23.88;;;;;;;9.87;56.07;101764.38;5036445;28;20125;-68
2022/01/27 12:44:08;;;;;;;81.82;33.20;;;;;;;9.12;58.43;101769.22;5034014;28;20044;-68
2022/01/27 12:47:06;;;;;;;76.85;31.23;;;;;;;9.49;57.03;101759.78;5019036;28;20114;-68
2022/01/27 12:50:03;;;;;;;87.10;33.08;;;;;;;9.52;56.22;101754.59;5031297;28;20061;-68
2022/01/27 12:52:57;;;;;;;77.80;30.77;;;;;;;9.24;57.30;101758.84;5034632;28;20060;-68
2022/01/27 12:55:44;;;;;;;80.18;32.75;;;;;;;8.84;58.51;101762.56;5017668;28;20044;-68
2022/01/27 12:58:30;;;;;;;81.18;34.03;;;;;;;8.73;58.62;101757.47;5030824;28;20435;-68
2022/01/27 13:01:16;;;;;;;79.00;34.42;;;;;;;8.66;59.23;101756.94;5037151;28;20049;-68
2022/01/27 13:04:01;;;;;;;79.97;32.83;;;;;;;9.07;58.44;101755.69;5037005;28;20052;-68
2022/01/27 13:06:54;;;;;;;60.60;25.13;;;;;;;8.87;58.10;101762.03;5034536;28;20398;-68
2022/01/27 13:09:39;;;;;;;79.35;31.65;;;;;;;8.54;59.56;101752.66;5032934;28;20045;-69
2022/01/27 13:12:30;;;;;;;86.20;32.78;;;;;;;8.19;60.82;101752.69;5032958;28;20045;-68
2022/01/27 13:15:20;;;;;;;88.60;32.13;;;;;;;7.99;61.35;101753.53;5032755;28;20052;-69
2022/01/27 13:18:26;;;;;;;94.28;33.67;;;;;;;7.61;63.02;101744.09;5034796;28;20045;-69
2022/01/27 13:21:26;;;;;;;63.38;25.17;;;;;;;7.34;63.93;101745.41;5037807;28;20048;-68
2022/01/27 13:24:17;;;;;;;79.45;34.95;;;;;;;7.09;64.66;101738.84;5039837;28;20045;-68
2022/01/27 13:27:12;;;;;;;87.82;32.28;;;;;;;7.08;65.58;101731.81;5043311;28;20052;-68
2022/01/27 13:29:59;;;;;;;81.25;32.97;;;;;;;7.23;64.40;101729.16;5041436;28;20052;-68